Flugplatz Aachen-Merzbrück

Für EDKA sind keine METAR/TAF Berichte vorhanden.
Es werden die Flugwettermeldungen vom Flugplatz Geilenkirchen Airport in 18 km Entfernung angezeigt.

Bericht für ETNG

vom 23.08. um 13:50 UTC

Wind 7 kt aus 80°

Sichtweite 10 km oder mehr

gute Sicht, keine Wolken < 5000 ft, keine CB, keine Wettererscheinungen (CAVOK)

Temperatur 27.0°C

Taupunkt 13.0°C

Luftfeuchtigkeit 42%

Luftdruck 1024 hPa

keine wesentliche Wetteränderung innerhalb den nächsten 2 Stunden zu erwarten

ETNG 231350Z 08007KT CAVOK 27/13 Q1024 NOSIG

Prognose für ETNG

vom 23.08. um 00:00 UTC

Zwischen 00:00 UTC und 00:00 UTC

Wind 8 kt aus 40°

Sichtweite 10 km oder mehr

keine signifikanten Wettererscheinungen

keine Wolken


Zwischen 00:00 und 00:00 UTC übergehend zu

variable Windrichtung mit 3 kt

Sichtweite 10 km oder mehr

keine signifikanten Wettererscheinungen

keine Wolken

TAF ETNG 231100Z 2312/2403 04008KT CAVOK BECMG 2316/2319 VRB03KT
Impressum